createdAt,value
2023-03-16T00:01:06.821Z,2.63
2023-03-16T00:03:34.337Z,3.00
2023-03-16T00:06:00.922Z,2.90
2023-03-16T00:08:27.601Z,4.13
2023-03-16T00:10:54.145Z,2.73
2023-03-16T00:13:23.782Z,2.53
2023-03-16T00:16:03.618Z,3.40
2023-03-16T00:18:38.411Z,2.83
2023-03-16T00:21:06.009Z,3.83
2023-03-16T00:23:37.392Z,3.47
2023-03-16T00:26:07.602Z,4.77
2023-03-16T00:28:35.424Z,6.00
2023-03-16T00:31:08.425Z,5.20
2023-03-16T00:33:34.922Z,4.93
2023-03-16T00:36:04.348Z,5.07
2023-03-16T00:38:35.833Z,5.03
2023-03-16T00:41:08.402Z,4.53
2023-03-16T00:43:44.068Z,4.30
2023-03-16T00:46:15.161Z,2.63
2023-03-16T00:48:45.907Z,2.57
2023-03-16T00:51:17.289Z,2.80
2023-03-16T00:53:45.854Z,2.30
2023-03-16T00:56:13.053Z,2.60
2023-03-16T00:58:42.301Z,2.53
2023-03-16T01:01:20.049Z,3.17
2023-03-16T01:03:46.785Z,4.47
2023-03-16T01:06:19.758Z,4.60
2023-03-16T01:08:46.654Z,4.63
2023-03-16T01:11:17.413Z,3.87
2023-03-16T01:13:46.186Z,4.50
2023-03-16T01:16:12.688Z,4.23
2023-03-16T01:18:39.805Z,3.33
2023-03-16T01:21:08.588Z,3.27
2023-03-16T01:23:36.642Z,3.13
2023-03-16T01:26:03.146Z,3.50
2023-03-16T01:28:31.879Z,3.30
2023-03-16T01:31:09.693Z,3.47
2023-03-16T01:33:38.046Z,3.60
2023-03-16T01:36:12.398Z,3.47
2023-03-16T01:38:39.960Z,3.20
2023-03-16T01:41:07.855Z,3.57
2023-03-16T01:43:37.143Z,3.23
2023-03-16T01:46:29.853Z,3.30
2023-03-16T01:49:09.787Z,3.30
2023-03-16T01:52:08.034Z,2.50
2023-03-16T01:54:46.128Z,2.20
2023-03-16T01:57:23.415Z,2.83
2023-03-16T02:00:19.172Z,2.23
2023-03-16T02:03:04.435Z,2.40
2023-03-16T02:05:52.593Z,2.60
2023-03-16T02:08:22.212Z,2.60
2023-03-16T02:10:49.047Z,2.30
2023-03-16T02:13:15.632Z,2.20
2023-03-16T02:15:42.145Z,2.03
2023-03-16T02:18:08.949Z,2.20
2023-03-16T02:22:13.339Z,2.13
2023-03-16T02:24:41.420Z,2.03
2023-03-16T02:27:23.941Z,1.97
2023-03-16T02:30:01.885Z,1.80
2023-03-16T02:32:31.972Z,2.20
2023-03-16T02:35:01.532Z,2.23
2023-03-16T02:37:28.628Z,2.40
2023-03-16T02:39:55.105Z,2.20
2023-03-16T02:42:25.988Z,2.30
2023-03-16T02:44:59.609Z,3.17
2023-03-16T02:47:40.836Z,2.43
2023-03-16T02:50:10.653Z,2.07
2023-03-16T02:52:38.883Z,1.80
2023-03-16T02:55:07.245Z,2.00
2023-03-16T02:57:33.948Z,1.70
2023-03-16T03:00:00.620Z,2.03
2023-03-16T03:02:27.232Z,1.77
2023-03-16T03:04:53.820Z,1.63
2023-03-16T03:07:21.257Z,2.00
2023-03-16T03:09:47.715Z,1.77
2023-03-16T03:12:14.324Z,1.60
2023-03-16T03:14:40.846Z,1.30
2023-03-16T03:17:09.360Z,1.70
2023-03-16T03:19:36.653Z,1.60
2023-03-16T03:22:05.665Z,2.10
2023-03-16T03:24:36.142Z,1.70
2023-03-16T03:27:05.487Z,1.63
2023-03-16T03:29:35.380Z,1.93
2023-03-16T03:32:03.878Z,1.50
2023-03-16T03:34:31.087Z,1.57
2023-03-16T03:36:58.149Z,1.27
2023-03-16T03:39:24.869Z,1.27
2023-03-16T03:41:53.999Z,1.53
2023-03-16T03:44:24.062Z,1.20
2023-03-16T03:46:53.748Z,1.40
2023-03-16T03:49:20.296Z,1.63
2023-03-16T03:51:46.772Z,1.27
2023-03-16T03:54:13.231Z,1.40
2023-03-16T03:56:39.784Z,1.30
2023-03-16T03:59:06.235Z,1.03
2023-03-16T04:01:33.033Z,1.57
2023-03-16T04:03:59.515Z,1.83
2023-03-16T04:06:26.208Z,1.47
2023-03-16T04:08:53.559Z,1.40
2023-03-16T04:11:20.719Z,1.60
2023-03-16T04:13:47.472Z,1.40
2023-03-16T04:16:15.424Z,1.80
2023-03-16T04:18:42.090Z,1.30
2023-03-16T04:21:16.263Z,1.60
2023-03-16T04:23:43.469Z,1.47
2023-03-16T04:26:10.458Z,1.60
2023-03-16T04:28:37.097Z,1.57
2023-03-16T04:31:07.958Z,1.60
2023-03-16T04:33:36.860Z,1.60
2023-03-16T04:36:05.536Z,1.57
2023-03-16T04:38:33.989Z,1.77
2023-03-16T04:41:02.462Z,1.40
2023-03-16T04:43:33.470Z,1.60
2023-03-16T04:46:05.656Z,1.87
2023-03-16T04:48:32.616Z,1.70
2023-03-16T04:51:00.712Z,1.90
2023-03-16T04:53:27.518Z,1.80
2023-03-16T04:55:53.964Z,1.50
2023-03-16T04:58:20.438Z,1.13
2023-03-16T05:00:47.699Z,2.17
2023-03-16T05:03:14.209Z,3.57
2023-03-16T05:05:41.721Z,1.73
2023-03-16T05:08:10.029Z,1.70
2023-03-16T05:10:36.527Z,1.57
2023-03-16T05:13:03.004Z,1.47
2023-03-16T05:15:29.916Z,1.97
2023-03-16T05:17:56.655Z,1.60
2023-03-16T05:20:23.802Z,1.77
2023-03-16T05:22:51.125Z,1.90
2023-03-16T05:25:19.849Z,1.60
2023-03-16T05:27:51.164Z,1.87
2023-03-16T05:30:18.537Z,1.50
2023-03-16T05:32:45.325Z,1.50
2023-03-16T05:35:13.017Z,1.80
2023-03-16T05:37:41.804Z,1.30
2023-03-16T05:40:18.479Z,1.40
2023-03-16T05:42:48.404Z,1.37
2023-03-16T05:45:16.752Z,1.57
2023-03-16T05:47:43.857Z,1.57
2023-03-16T05:50:13.196Z,1.37
2023-03-16T05:52:40.444Z,1.43
2023-03-16T05:55:08.933Z,1.43
2023-03-16T05:57:35.608Z,1.20
2023-03-16T06:00:12.422Z,1.10
2023-03-16T06:02:38.902Z,1.43
2023-03-16T06:05:06.830Z,1.47
2023-03-16T06:07:34.219Z,1.53
2023-03-16T06:10:00.711Z,1.27
2023-03-16T06:12:27.484Z,2.00
2023-03-16T06:14:53.954Z,2.20
2023-03-16T06:17:23.242Z,2.97
2023-03-16T06:19:50.644Z,2.20
2023-03-16T06:22:17.645Z,2.70
2023-03-16T06:24:44.276Z,2.57
2023-03-16T06:27:11.331Z,2.50
2023-03-16T06:29:37.804Z,2.53
2023-03-16T06:32:04.719Z,2.77
2023-03-16T06:34:31.293Z,2.73
2023-03-16T06:36:57.761Z,2.90
2023-03-16T06:39:24.262Z,3.00
2023-03-16T06:41:50.734Z,2.97
2023-03-16T06:44:17.244Z,2.57
2023-03-16T06:46:43.707Z,2.97
2023-03-16T06:49:10.356Z,2.07
2023-03-16T06:51:36.808Z,1.90
2023-03-16T06:54:03.579Z,1.57
2023-03-16T06:56:31.003Z,2.10
2023-03-16T06:58:57.831Z,1.70
2023-03-16T07:01:24.486Z,1.97
2023-03-16T07:03:50.973Z,2.57
2023-03-16T07:06:17.883Z,1.87
2023-03-16T07:08:44.432Z,1.97
2023-03-16T07:11:10.909Z,1.67
2023-03-16T07:13:39.933Z,1.97
2023-03-16T07:16:07.254Z,1.70
2023-03-16T07:18:33.774Z,1.50
2023-03-16T07:21:00.271Z,2.10
2023-03-16T07:23:26.730Z,2.33
2023-03-16T07:25:53.207Z,2.53
2023-03-16T07:28:19.988Z,2.07
2023-03-16T07:31:02.413Z,2.07
2023-03-16T07:33:31.541Z,2.57
2023-03-16T07:35:58.180Z,1.60
2023-03-16T07:38:24.702Z,1.87
2023-03-16T07:40:53.671Z,1.50
2023-03-16T07:43:20.169Z,1.63
2023-03-16T07:45:51.785Z,1.50
2023-03-16T07:48:19.302Z,1.17
2023-03-16T07:50:47.858Z,1.30
2023-03-16T07:53:14.933Z,1.10
2023-03-16T07:55:42.961Z,1.33
2023-03-16T07:58:10.463Z,0.90
2023-03-16T08:00:38.291Z,1.07
2023-03-16T08:03:05.777Z,0.90
2023-03-16T08:05:32.251Z,1.00
2023-03-16T08:08:00.969Z,1.20
2023-03-16T08:10:28.612Z,0.93
2023-03-16T08:12:55.315Z,1.30
2023-03-16T08:15:21.849Z,1.20
2023-03-16T08:17:48.342Z,1.20
2023-03-16T08:20:14.871Z,1.20
2023-03-16T08:22:45.533Z,1.60
2023-03-16T08:25:12.888Z,1.30
2023-03-16T08:27:39.585Z,1.47
2023-03-16T08:30:10.818Z,1.70
2023-03-16T08:32:38.960Z,1.20
2023-03-16T08:35:08.885Z,1.20
2023-03-16T08:37:35.755Z,1.10
2023-03-16T08:40:04.289Z,1.43
2023-03-16T08:42:30.928Z,1.87
2023-03-16T08:45:00.109Z,1.10
2023-03-16T08:47:26.599Z,1.73
2023-03-16T08:49:53.080Z,1.43
2023-03-16T08:52:19.561Z,1.40
2023-03-16T08:55:01.517Z,1.53
2023-03-16T08:57:28.685Z,1.50
2023-03-16T08:59:55.178Z,1.30
2023-03-16T09:02:21.806Z,1.30
2023-03-16T09:04:48.986Z,1.30
2023-03-16T09:07:15.473Z,1.33
2023-03-16T09:09:41.956Z,1.40
2023-03-16T09:12:08.574Z,1.30
2023-03-16T09:14:37.612Z,1.23
2023-03-16T09:17:05.081Z,1.40
2023-03-16T09:19:49.976Z,1.30
2023-03-16T09:22:19.055Z,1.20
2023-03-16T09:24:45.538Z,1.20
2023-03-16T09:27:12.090Z,1.30
2023-03-16T09:29:38.634Z,1.53
2023-03-16T09:32:05.837Z,1.43
2023-03-16T09:34:33.403Z,1.43
2023-03-16T09:37:00.661Z,1.00
2023-03-16T09:39:27.222Z,1.60
2023-03-16T09:43:51.692Z,1.80
2023-03-16T09:46:54.027Z,1.10
2023-03-16T09:49:26.844Z,1.00
2023-03-16T09:52:24.122Z,1.67
2023-03-16T09:57:36.327Z,1.50
2023-03-16T10:00:23.745Z,1.70
2023-03-16T10:04:33.818Z,1.47
2023-03-16T10:07:47.381Z,1.60
2023-03-16T10:11:53.208Z,1.60
2023-03-16T10:15:26.459Z,1.57
2023-03-16T10:18:48.429Z,1.63
2023-03-16T10:21:19.244Z,1.47
2023-03-16T10:23:47.837Z,1.60
2023-03-16T10:26:35.920Z,1.83
2023-03-16T10:29:03.969Z,1.47
2023-03-16T10:31:34.252Z,1.60
2023-03-16T10:34:05.649Z,1.53
2023-03-16T10:36:37.344Z,1.43
2023-03-16T10:39:09.822Z,1.70
2023-03-16T10:41:44.618Z,1.20
2023-03-16T10:44:16.182Z,1.33
2023-03-16T10:46:47.573Z,1.27
2023-03-16T10:49:35.332Z,1.20
2023-03-16T10:52:16.140Z,1.10
2023-03-16T10:54:52.134Z,1.20
2023-03-16T10:57:34.224Z,0.70
2023-03-16T11:00:15.289Z,0.90
2023-03-16T11:02:42.667Z,0.80
2023-03-16T11:05:33.170Z,0.80
2023-03-16T11:08:13.235Z,0.83
2023-03-16T11:10:55.264Z,1.10
2023-03-16T11:13:25.420Z,0.90
2023-03-16T11:19:23.864Z,0.87
2023-03-16T11:22:16.818Z,0.60
2023-03-16T11:24:52.470Z,0.80
2023-03-16T11:31:48.594Z,0.60
2023-03-16T11:34:19.231Z,0.80
2023-03-16T11:40:01.491Z,0.87
2023-03-16T11:42:53.318Z,0.73
2023-03-16T11:45:49.577Z,1.10
2023-03-16T11:50:00.696Z,0.90
2023-03-16T11:53:45.853Z,1.07
2023-03-16T11:56:45.058Z,1.10
2023-03-16T12:00:52.084Z,1.00
2023-03-16T12:03:53.126Z,0.87
2023-03-16T12:08:18.256Z,0.67
2023-03-16T12:11:04.880Z,0.90
2023-03-16T12:14:25.879Z,1.00
2023-03-16T12:17:15.830Z,1.10
2023-03-16T12:21:37.898Z,0.97
2023-03-16T12:24:10.786Z,0.90
2023-03-16T12:26:42.288Z,1.10
2023-03-16T12:31:55.246Z,0.97
2023-03-16T12:37:09.447Z,1.00
2023-03-16T12:42:14.037Z,1.00
2023-03-16T12:48:43.881Z,0.90
2023-03-16T12:51:10.535Z,1.30
2023-03-16T12:53:56.620Z,1.07
2023-03-16T12:56:44.796Z,1.00
2023-03-16T12:59:18.961Z,1.17
2023-03-16T13:01:57.349Z,1.00
2023-03-16T13:04:34.854Z,1.10
2023-03-16T13:07:21.924Z,0.90
2023-03-16T13:10:09.421Z,1.33
2023-03-16T13:12:38.100Z,1.23
2023-03-16T13:15:28.881Z,1.17
2023-03-16T13:20:31.328Z,1.27
2023-03-16T13:23:28.092Z,1.00
2023-03-16T13:26:26.370Z,1.20
2023-03-16T13:28:54.669Z,1.13
2023-03-16T13:31:41.261Z,1.27
2023-03-16T13:34:18.833Z,1.00
2023-03-16T13:36:46.281Z,1.07
2023-03-16T13:39:26.683Z,1.27
2023-03-16T13:42:16.106Z,1.47
2023-03-16T13:44:43.801Z,1.13
2023-03-16T13:47:17.145Z,1.07
2023-03-16T13:49:53.792Z,1.37
2023-03-16T13:52:44.844Z,1.30
2023-03-16T13:55:21.494Z,1.00
2023-03-16T13:57:48.771Z,1.10
2023-03-16T14:00:26.435Z,1.13
2023-03-16T14:02:59.440Z,0.80
2023-03-16T14:05:33.823Z,1.10
2023-03-16T14:08:01.416Z,1.20
2023-03-16T14:10:36.158Z,1.20
2023-03-16T14:13:35.372Z,1.20
2023-03-16T14:16:45.614Z,1.10
2023-03-16T14:19:25.011Z,0.90
2023-03-16T14:21:51.661Z,1.00
2023-03-16T14:24:34.068Z,0.80
2023-03-16T14:28:06.741Z,1.00
2023-03-16T14:30:33.270Z,1.20
2023-03-16T14:33:03.706Z,1.10
2023-03-16T14:35:43.627Z,1.50
2023-03-16T14:38:35.360Z,1.00
2023-03-16T14:41:25.511Z,1.37
2023-03-16T14:43:59.663Z,1.43
2023-03-16T14:46:33.493Z,1.10
2023-03-16T14:49:43.369Z,1.47
2023-03-16T14:52:33.181Z,1.13
2023-03-16T14:55:08.976Z,1.33
2023-03-16T14:57:35.711Z,1.20
2023-03-16T15:00:04.206Z,1.30
2023-03-16T15:02:33.405Z,1.20
2023-03-16T15:05:02.274Z,1.10
2023-03-16T15:07:34.554Z,1.30
2023-03-16T15:11:06.400Z,1.10
2023-03-16T15:13:36.137Z,1.17
2023-03-16T15:16:04.754Z,1.30
2023-03-16T15:18:32.811Z,1.10
2023-03-16T15:21:01.249Z,1.00
2023-03-16T15:23:30.102Z,1.00
2023-03-16T15:26:02.025Z,1.40
2023-03-16T15:28:28.914Z,1.20
2023-03-16T15:30:58.690Z,1.17
2023-03-16T15:33:26.520Z,1.23
2023-03-16T15:35:56.508Z,1.73
2023-03-16T15:38:38.956Z,1.23
2023-03-16T15:41:13.399Z,1.30
2023-03-16T15:43:40.669Z,1.20
2023-03-16T15:46:07.159Z,1.43
2023-03-16T15:48:33.990Z,1.60
2023-03-16T15:51:07.716Z,1.50
2023-03-16T15:53:52.605Z,1.13
2023-03-16T15:56:28.979Z,1.30
2023-03-16T15:59:00.226Z,1.27
2023-03-16T16:01:31.281Z,1.17
2023-03-16T16:03:58.324Z,1.23
2023-03-16T16:06:26.683Z,1.43
2023-03-16T16:08:53.152Z,1.47
2023-03-16T16:11:25.588Z,1.10
2023-03-16T16:13:55.012Z,1.10
2023-03-16T16:16:21.562Z,1.10
2023-03-16T16:18:48.775Z,1.20
2023-03-16T16:21:25.976Z,1.33
2023-03-16T16:23:52.577Z,1.20
2023-03-16T16:26:51.670Z,1.17
2023-03-16T16:29:25.913Z,1.40
2023-03-16T16:31:52.655Z,1.20
2023-03-16T16:34:23.601Z,1.00
2023-03-16T16:36:50.158Z,1.20
2023-03-16T16:39:16.958Z,1.17
2023-03-16T16:41:44.116Z,1.17
2023-03-16T16:44:33.877Z,1.20
2023-03-16T16:47:02.679Z,1.07
2023-03-16T16:49:31.545Z,1.40
2023-03-16T16:51:59.178Z,1.13
2023-03-16T16:54:29.633Z,0.90
2023-03-16T16:56:59.868Z,1.10
2023-03-16T16:59:32.374Z,1.33
2023-03-16T17:02:02.473Z,1.50
2023-03-16T17:04:29.555Z,1.10
2023-03-16T17:07:01.147Z,1.50
2023-03-16T17:09:29.400Z,1.90
2023-03-16T17:12:00.170Z,1.17
2023-03-16T17:14:30.487Z,1.20
2023-03-16T17:17:01.895Z,1.43
2023-03-16T17:19:28.437Z,1.40
2023-03-16T17:21:57.671Z,1.50
2023-03-16T17:24:24.486Z,1.60
2023-03-16T17:26:59.603Z,1.57
2023-03-16T17:29:32.586Z,1.67
2023-03-16T17:32:03.098Z,3.07
2023-03-16T17:34:33.453Z,4.53
2023-03-16T17:37:01.125Z,4.47
2023-03-16T17:39:31.324Z,5.17
2023-03-16T17:42:10.117Z,5.30
2023-03-16T17:44:43.314Z,4.27
2023-03-16T17:47:22.227Z,4.60
2023-03-16T17:49:50.080Z,4.13
2023-03-16T17:52:23.542Z,2.50
2023-03-16T17:54:53.095Z,2.17
2023-03-16T17:57:33.375Z,2.80
2023-03-16T18:00:02.757Z,1.70
2023-03-16T18:03:45.196Z,1.47
2023-03-16T18:06:30.514Z,1.70
2023-03-16T18:08:57.453Z,2.03
2023-03-16T18:11:40.896Z,2.10
2023-03-16T18:14:21.173Z,2.30
2023-03-16T18:16:47.648Z,2.10
2023-03-16T18:19:24.899Z,2.30
2023-03-16T18:21:52.851Z,1.83
2023-03-16T18:24:21.387Z,2.57
2023-03-16T18:26:47.961Z,2.00
2023-03-16T18:29:16.619Z,1.37
2023-03-16T18:31:45.817Z,1.53
2023-03-16T18:34:23.139Z,1.93
2023-03-16T18:36:52.459Z,2.80
2023-03-16T18:39:21.319Z,3.87
2023-03-16T18:41:50.235Z,3.77
2023-03-16T18:44:24.969Z,4.50
2023-03-16T18:47:00.343Z,4.17
2023-03-16T18:49:36.298Z,4.33
2023-03-16T18:52:18.556Z,3.00
2023-03-16T18:54:46.283Z,2.30
2023-03-16T18:57:22.472Z,1.73
2023-03-16T18:59:50.369Z,1.50
2023-03-16T19:02:46.646Z,1.80
2023-03-16T19:05:18.984Z,2.27
2023-03-16T19:07:50.140Z,2.27
2023-03-16T19:10:31.556Z,2.30
2023-03-16T19:12:58.808Z,2.13
2023-03-16T19:15:33.141Z,3.03
2023-03-16T19:17:59.694Z,2.73
2023-03-16T19:20:32.808Z,2.10
2023-03-16T19:23:55.228Z,3.03
2023-03-16T19:26:22.003Z,2.80
2023-03-16T19:28:48.984Z,3.37
2023-03-16T19:31:30.888Z,3.57
2023-03-16T19:33:57.746Z,3.23
2023-03-16T19:36:33.136Z,3.20
2023-03-16T19:38:59.990Z,3.63
2023-03-16T19:41:37.316Z,4.10
2023-03-16T19:44:25.680Z,3.50
2023-03-16T19:46:52.768Z,3.80
2023-03-16T19:49:22.854Z,3.40
2023-03-16T19:51:53.004Z,3.27
2023-03-16T19:54:34.356Z,3.33
2023-03-16T19:57:14.263Z,3.20
2023-03-16T19:59:42.995Z,3.10
2023-03-16T20:02:56.469Z,3.33
2023-03-16T20:05:28.256Z,3.47
2023-03-16T20:07:58.739Z,2.97
2023-03-16T20:10:31.807Z,2.87
2023-03-16T20:13:00.886Z,3.53
2023-03-16T20:15:32.101Z,2.77
2023-03-16T20:17:59.234Z,2.43
2023-03-16T20:20:29.488Z,2.60
2023-03-16T20:22:58.821Z,2.93
2023-03-16T20:25:31.139Z,2.80
2023-03-16T20:28:01.384Z,2.30
2023-03-16T20:30:29.923Z,2.67
2023-03-16T20:32:57.824Z,2.30
2023-03-16T20:35:31.833Z,2.47
2023-03-16T20:37:58.535Z,2.77
2023-03-16T20:40:25.447Z,2.73
2023-03-16T20:42:52.440Z,2.40
2023-03-16T20:45:24.973Z,2.67
2023-03-16T20:47:52.890Z,3.10
2023-03-16T20:50:29.922Z,2.47
2023-03-16T20:52:57.185Z,2.57
2023-03-16T20:55:28.451Z,2.93
2023-03-16T20:57:56.697Z,2.70
2023-03-16T21:00:34.571Z,3.13
2023-03-16T21:03:04.682Z,2.60
2023-03-16T21:05:31.954Z,2.80
2023-03-16T21:07:58.517Z,2.33
2023-03-16T21:10:27.056Z,2.50
2023-03-16T21:12:56.556Z,2.73
2023-03-16T21:15:28.817Z,2.77
2023-03-16T21:18:06.578Z,3.10
2023-03-16T21:20:36.492Z,2.90
2023-03-16T21:23:03.462Z,2.60
2023-03-16T21:25:44.030Z,2.53
2023-03-16T21:28:11.779Z,2.90
2023-03-16T21:30:50.849Z,2.73
2023-03-16T21:33:40.948Z,2.63
2023-03-16T21:36:18.407Z,2.53
2023-03-16T21:38:46.343Z,2.43
2023-03-16T21:41:14.149Z,2.60
2023-03-16T21:43:42.939Z,2.80
2023-03-16T21:46:23.861Z,2.87
2023-03-16T21:48:54.183Z,2.73
2023-03-16T21:51:30.480Z,3.00
2023-03-16T21:53:57.646Z,2.93
2023-03-16T21:56:25.406Z,2.67
2023-03-16T21:58:53.387Z,2.80
2023-03-16T22:01:32.138Z,2.83
2023-03-16T22:04:05.792Z,2.40
2023-03-16T22:06:32.694Z,2.53
2023-03-16T22:09:00.185Z,2.80
2023-03-16T22:11:31.288Z,3.00
2023-03-16T22:13:58.819Z,2.83
2023-03-16T22:16:30.820Z,2.47
2023-03-16T22:18:58.086Z,2.77
2023-03-16T22:21:42.968Z,2.70
2023-03-16T22:24:20.250Z,2.87
2023-03-16T22:26:48.176Z,2.87
2023-03-16T22:29:30.136Z,2.80
2023-03-16T22:32:07.719Z,2.63
2023-03-16T22:34:49.741Z,2.70
2023-03-16T22:37:28.056Z,2.47
2023-03-16T22:39:56.566Z,2.67
2023-03-16T22:42:37.340Z,2.80
2023-03-16T22:45:37.599Z,3.17
2023-03-16T22:48:23.320Z,2.90
2023-03-16T22:50:50.656Z,2.37
2023-03-16T22:53:40.695Z,2.90
2023-03-16T22:56:11.050Z,2.50
2023-03-16T22:58:50.624Z,2.97
2023-03-16T23:01:22.260Z,2.87
2023-03-16T23:03:52.940Z,3.20
2023-03-16T23:06:26.199Z,2.73
2023-03-16T23:08:54.023Z,2.77
2023-03-16T23:11:32.015Z,3.40
2023-03-16T23:14:00.071Z,2.43
2023-03-16T23:16:35.716Z,2.80
2023-03-16T23:19:04.375Z,2.77
2023-03-16T23:21:32.471Z,3.07
2023-03-16T23:24:04.002Z,2.73
2023-03-16T23:26:32.019Z,3.23
2023-03-16T23:28:58.680Z,2.90
2023-03-16T23:31:26.383Z,3.47
2023-03-16T23:33:53.215Z,2.70
2023-03-16T23:36:23.565Z,3.03
2023-03-16T23:38:51.070Z,2.87
2023-03-16T23:41:22.591Z,2.97
2023-03-16T23:43:51.152Z,2.87
2023-03-16T23:46:22.333Z,2.80
2023-03-16T23:48:50.636Z,2.70
2023-03-16T23:51:31.326Z,2.93
2023-03-16T23:53:58.544Z,3.00
2023-03-16T23:56:26.262Z,2.60
2023-03-16T23:58:53.926Z,2.80
